sensor_id;sensor_type;location;lat;lon;timestamp;pressure;altitude;pressure_sealevel;temperature;humidity
12360;BME280;6244;51.460;7.090;2023-02-28T00:00:03;102039.66;;;0.68;64.66
12360;BME280;6244;51.460;7.090;2023-02-28T00:05:08;102044.72;;;0.58;64.13
12360;BME280;6244;51.460;7.090;2023-02-28T00:10:08;102049.97;;;0.63;64.08
12360;BME280;6244;51.460;7.090;2023-02-28T00:15:07;102037.84;;;0.59;64.46
12360;BME280;6244;51.460;7.090;2023-02-28T00:20:05;102050.75;;;0.61;64.07
12360;BME280;6244;51.460;7.090;2023-02-28T00:25:06;102049.81;;;0.52;64.51
12360;BME280;6244;51.460;7.090;2023-02-28T00:30:04;102046.38;;;0.52;64.00
12360;BME280;6244;51.460;7.090;2023-02-28T00:35:01;102044.53;;;0.43;63.88
12360;BME280;6244;51.460;7.090;2023-02-28T00:39:58;102041.94;;;0.43;64.24
12360;BME280;6244;51.460;7.090;2023-02-28T00:44:56;102047.09;;;0.42;64.52
12360;BME280;6244;51.460;7.090;2023-02-28T00:49:52;102037.59;;;0.39;64.04
12360;BME280;6244;51.460;7.090;2023-02-28T00:54:49;102048.09;;;0.50;63.75
12360;BME280;6244;51.460;7.090;2023-02-28T00:59:45;102051.56;;;0.55;63.35
12360;BME280;6244;51.460;7.090;2023-02-28T01:04:43;102066.91;;;0.41;63.69
12360;BME280;6244;51.460;7.090;2023-02-28T01:09:40;102058.28;;;0.42;63.84
12360;BME280;6244;51.460;7.090;2023-02-28T01:14:36;102064.28;;;0.40;63.47
12360;BME280;6244;51.460;7.090;2023-02-28T01:19:33;102060.00;;;0.40;63.67
12360;BME280;6244;51.460;7.090;2023-02-28T01:24:32;102059.88;;;0.31;63.50
12360;BME280;6244;51.460;7.090;2023-02-28T01:29:29;102054.56;;;0.22;64.04
12360;BME280;6244;51.460;7.090;2023-02-28T01:34:25;102049.41;;;0.22;63.69
12360;BME280;6244;51.460;7.090;2023-02-28T01:39:22;102056.38;;;0.26;63.90
12360;BME280;6244;51.460;7.090;2023-02-28T01:49:54;102047.72;;;0.24;63.31
12360;BME280;6244;51.460;7.090;2023-02-28T01:54:54;102041.66;;;0.22;64.16
12360;BME280;6244;51.460;7.090;2023-02-28T01:59:54;102038.25;;;0.24;63.60
12360;BME280;6244;51.460;7.090;2023-02-28T02:04:57;102029.56;;;0.18;63.86
12360;BME280;6244;51.460;7.090;2023-02-28T02:10:00;102024.44;;;0.19;62.95
12360;BME280;6244;51.460;7.090;2023-02-28T02:15:04;102017.38;;;0.08;63.67
12360;BME280;6244;51.460;7.090;2023-02-28T02:20:38;102013.81;;;-0.01;63.83
12360;BME280;6244;51.460;7.090;2023-02-28T02:25:43;102014.53;;;-0.12;64.53
12360;BME280;6244;51.460;7.090;2023-02-28T02:30:59;102016.97;;;-0.23;65.39
12360;BME280;6244;51.460;7.090;2023-02-28T02:36:05;102022.97;;;-0.22;65.25
12360;BME280;6244;51.460;7.090;2023-02-28T02:41:08;102009.81;;;-0.39;65.42
12360;BME280;6244;51.460;7.090;2023-02-28T02:46:12;102015.94;;;-0.34;65.57
12360;BME280;6244;51.460;7.090;2023-02-28T02:51:14;102016.88;;;-0.27;65.29
12360;BME280;6244;51.460;7.090;2023-02-28T02:56:11;102010.81;;;-0.30;65.41
12360;BME280;6244;51.460;7.090;2023-02-28T03:01:12;102011.69;;;-0.29;64.90
12360;BME280;6244;51.460;7.090;2023-02-28T03:06:08;102023.69;;;-0.31;65.07
12360;BME280;6244;51.460;7.090;2023-02-28T03:11:11;102021.28;;;-0.22;64.93
12360;BME280;6244;51.460;7.090;2023-02-28T03:21:43;102018.56;;;-0.30;64.53
12360;BME280;6244;51.460;7.090;2023-02-28T03:26:50;102015.78;;;-0.43;64.96
12360;BME280;6244;51.460;7.090;2023-02-28T03:31:52;102012.16;;;-0.54;65.16
12360;BME280;6244;51.460;7.090;2023-02-28T03:36:53;102013.78;;;-0.61;65.36
12360;BME280;6244;51.460;7.090;2023-02-28T03:41:57;102017.91;;;-0.71;65.07
12360;BME280;6244;51.460;7.090;2023-02-28T03:46:58;102022.22;;;-0.70;65.44
12360;BME280;6244;51.460;7.090;2023-02-28T03:51:58;102023.75;;;-0.79;65.98
12360;BME280;6244;51.460;7.090;2023-02-28T03:57:03;102021.34;;;-0.70;65.19
12360;BME280;6244;51.460;7.090;2023-02-28T04:02:01;102014.53;;;-0.67;64.54
12360;BME280;6244;51.460;7.090;2023-02-28T04:07:03;102010.22;;;-0.68;65.35
12360;BME280;6244;51.460;7.090;2023-02-28T04:12:01;102017.97;;;-0.66;65.09
12360;BME280;6244;51.460;7.090;2023-02-28T04:16:57;102010.34;;;-0.62;64.58
12360;BME280;6244;51.460;7.090;2023-02-28T04:21:54;102017.28;;;-0.57;63.69
12360;BME280;6244;51.460;7.090;2023-02-28T04:26:52;102018.09;;;-0.58;63.79
12360;BME280;6244;51.460;7.090;2023-02-28T04:31:50;102024.97;;;-0.61;63.87
12360;BME280;6244;51.460;7.090;2023-02-28T04:36:48;102027.38;;;-0.70;63.81
12360;BME280;6244;51.460;7.090;2023-02-28T04:41:45;102028.97;;;-0.75;64.66
12360;BME280;6244;51.460;7.090;2023-02-28T04:46:43;102033.13;;;-0.84;63.59
12360;BME280;6244;51.460;7.090;2023-02-28T04:51:41;102043.28;;;-0.92;64.49
12360;BME280;6244;51.460;7.090;2023-02-28T04:56:38;102038.06;;;-0.97;64.18
12360;BME280;6244;51.460;7.090;2023-02-28T05:01:34;102041.41;;;-1.01;64.65
12360;BME280;6244;51.460;7.090;2023-02-28T05:06:32;102034.50;;;-1.03;64.47
12360;BME280;6244;51.460;7.090;2023-02-28T05:11:33;102030.16;;;-1.06;64.47
12360;BME280;6244;51.460;7.090;2023-02-28T05:16:30;102042.25;;;-1.02;64.69
12360;BME280;6244;51.460;7.090;2023-02-28T05:21:29;102047.28;;;-1.09;64.48
12360;BME280;6244;51.460;7.090;2023-02-28T05:26:27;102050.78;;;-1.06;64.74
12360;BME280;6244;51.460;7.090;2023-02-28T05:31:25;102049.63;;;-1.20;65.12
12360;BME280;6244;51.460;7.090;2023-02-28T05:36:21;102059.94;;;-1.20;64.60
12360;BME280;6244;51.460;7.090;2023-02-28T05:41:19;102058.41;;;-1.10;65.02
12360;BME280;6244;51.460;7.090;2023-02-28T05:46:16;102067.28;;;-0.96;64.31
12360;BME280;6244;51.460;7.090;2023-02-28T05:51:14;102065.50;;;-0.99;63.77
12360;BME280;6244;51.460;7.090;2023-02-28T05:56:10;102068.84;;;-1.03;63.55
12360;BME280;6244;51.460;7.090;2023-02-28T06:01:24;102072.31;;;-1.01;63.61
12360;BME280;6244;51.460;7.090;2023-02-28T06:06:23;102077.19;;;-1.16;64.11
12360;BME280;6244;51.460;7.090;2023-02-28T06:11:20;102073.63;;;-1.23;64.62
12360;BME280;6244;51.460;7.090;2023-02-28T06:16:21;102086.63;;;-1.16;64.36
12360;BME280;6244;51.460;7.090;2023-02-28T06:21:18;102095.25;;;-1.13;64.45
12360;BME280;6244;51.460;7.090;2023-02-28T06:26:16;102089.44;;;-1.04;63.62
12360;BME280;6244;51.460;7.090;2023-02-28T06:31:14;102099.91;;;-0.97;62.93
12360;BME280;6244;51.460;7.090;2023-02-28T06:36:13;102101.34;;;-1.11;63.53
12360;BME280;6244;51.460;7.090;2023-02-28T06:41:10;102096.88;;;-1.20;64.15
12360;BME280;6244;51.460;7.090;2023-02-28T06:46:11;102099.38;;;-1.23;64.19
12360;BME280;6244;51.460;7.090;2023-02-28T06:51:10;102104.44;;;-1.26;63.82
12360;BME280;6244;51.460;7.090;2023-02-28T06:56:08;102099.25;;;-1.29;64.64
12360;BME280;6244;51.460;7.090;2023-02-28T07:01:06;102104.63;;;-1.18;64.51
12360;BME280;6244;51.460;7.090;2023-02-28T07:06:05;102105.41;;;-1.22;64.85
12360;BME280;6244;51.460;7.090;2023-02-28T07:11:02;102105.47;;;-1.17;64.42
12360;BME280;6244;51.460;7.090;2023-02-28T07:16:00;102110.28;;;-0.92;64.52
12360;BME280;6244;51.460;7.090;2023-02-28T07:20:57;102113.22;;;-0.74;63.95
12360;BME280;6244;51.460;7.090;2023-02-28T07:25:55;102118.97;;;-0.39;63.19
12360;BME280;6244;51.460;7.090;2023-02-28T07:30:52;102119.94;;;-0.34;63.03
12360;BME280;6244;51.460;7.090;2023-02-28T07:35:48;102120.78;;;-0.35;62.84
12360;BME280;6244;51.460;7.090;2023-02-28T07:40:45;102121.66;;;-0.34;63.10
12360;BME280;6244;51.460;7.090;2023-02-28T07:45:42;102125.00;;;-0.38;63.28
12360;BME280;6244;51.460;7.090;2023-02-28T07:50:39;102126.00;;;-0.30;63.89
12360;BME280;6244;51.460;7.090;2023-02-28T07:55:35;102125.94;;;-0.35;63.82
12360;BME280;6244;51.460;7.090;2023-02-28T08:00:32;102129.34;;;-0.37;64.03
12360;BME280;6244;51.460;7.090;2023-02-28T08:05:30;102129.63;;;-0.20;65.05
12360;BME280;6244;51.460;7.090;2023-02-28T08:10:27;102142.53;;;0.36;63.83
12360;BME280;6244;51.460;7.090;2023-02-28T08:15:23;102146.28;;;1.24;61.48
12360;BME280;6244;51.460;7.090;2023-02-28T08:20:19;102136.38;;;1.65;59.83
12360;BME280;6244;51.460;7.090;2023-02-28T08:25:18;102134.19;;;2.16;59.21
12360;BME280;6244;51.460;7.090;2023-02-28T08:30:15;102131.31;;;3.39;57.38
12360;BME280;6244;51.460;7.090;2023-02-28T08:35:12;102131.91;;;5.16;52.80
12360;BME280;6244;51.460;7.090;2023-02-28T08:40:10;102109.16;;;7.78;44.05
12360;BME280;6244;51.460;7.090;2023-02-28T08:45:10;102113.31;;;9.27;38.40
12360;BME280;6244;51.460;7.090;2023-02-28T08:50:08;102110.66;;;10.68;34.75
12360;BME280;6244;51.460;7.090;2023-02-28T08:55:05;102095.88;;;11.79;31.74
12360;BME280;6244;51.460;7.090;2023-02-28T09:00:02;102104.41;;;12.12;29.87
12360;BME280;6244;51.460;7.090;2023-02-28T09:05:01;102102.25;;;13.19;28.44
12360;BME280;6244;51.460;7.090;2023-02-28T09:09:58;102093.47;;;14.05;26.45
12360;BME280;6244;51.460;7.090;2023-02-28T09:14:54;102094.28;;;14.48;26.03
12360;BME280;6244;51.460;7.090;2023-02-28T09:19:51;102083.38;;;14.15;25.33
12360;BME280;6244;51.460;7.090;2023-02-28T09:24:49;102096.25;;;13.14;26.96
12360;BME280;6244;51.460;7.090;2023-02-28T09:29:45;102092.75;;;13.59;26.03
12360;BME280;6244;51.460;7.090;2023-02-28T09:34:42;102087.22;;;12.98;25.19
12360;BME280;6244;51.460;7.090;2023-02-28T09:39:38;102091.41;;;13.27;25.61
12360;BME280;6244;51.460;7.090;2023-02-28T09:44:37;102097.31;;;12.87;26.18
12360;BME280;6244;51.460;7.090;2023-02-28T09:49:39;102094.00;;;12.33;25.32
12360;BME280;6244;51.460;7.090;2023-02-28T09:54:37;102092.56;;;12.73;24.97
12360;BME280;6244;51.460;7.090;2023-02-28T09:59:41;102096.94;;;12.49;25.80
12360;BME280;6244;51.460;7.090;2023-02-28T10:04:45;102091.19;;;12.13;26.60
12360;BME280;6244;51.460;7.090;2023-02-28T10:09:51;102084.81;;;12.20;24.95
12360;BME280;6244;51.460;7.090;2023-02-28T10:14:51;102083.22;;;12.41;25.53
12360;BME280;6244;51.460;7.090;2023-02-28T10:19:57;102078.03;;;12.38;26.07
12360;BME280;6244;51.460;7.090;2023-02-28T10:24:57;102084.13;;;12.87;26.40
12360;BME280;6244;51.460;7.090;2023-02-28T10:30:01;102073.25;;;12.73;25.49
12360;BME280;6244;51.460;7.090;2023-02-28T10:35:00;102079.56;;;10.83;27.19
12360;BME280;6244;51.460;7.090;2023-02-28T10:39:57;102081.66;;;8.08;31.57
12360;BME280;6244;51.460;7.090;2023-02-28T10:45:11;102078.34;;;8.89;29.94
12360;BME280;6244;51.460;7.090;2023-02-28T10:50:26;102070.75;;;8.77;30.45
12360;BME280;6244;51.460;7.090;2023-02-28T10:55:25;102067.97;;;7.40;31.44
12360;BME280;6244;51.460;7.090;2023-02-28T11:00:24;102058.41;;;9.59;29.31
12360;BME280;6244;51.460;7.090;2023-02-28T11:05:27;102047.41;;;11.33;27.31
12360;BME280;6244;51.460;7.090;2023-02-28T11:10:27;102041.34;;;11.31;26.63
12360;BME280;6244;51.460;7.090;2023-02-28T11:15:30;102043.19;;;11.55;26.57
12360;BME280;6244;51.460;7.090;2023-02-28T11:20:29;102050.72;;;11.92;25.44
12360;BME280;6244;51.460;7.090;2023-02-28T11:25:29;102052.69;;;11.86;25.62
12360;BME280;6244;51.460;7.090;2023-02-28T11:30:30;102051.03;;;11.01;26.11
12360;BME280;6244;51.460;7.090;2023-02-28T11:35:30;102054.38;;;11.06;27.59
12360;BME280;6244;51.460;7.090;2023-02-28T11:40:37;102048.16;;;11.63;25.49
12360;BME280;6244;51.460;7.090;2023-02-28T11:45:45;102049.88;;;12.40;25.41
12360;BME280;6244;51.460;7.090;2023-02-28T11:50:52;102047.44;;;12.82;25.45
12360;BME280;6244;51.460;7.090;2023-02-28T11:55:54;102028.72;;;13.56;24.44
12360;BME280;6244;51.460;7.090;2023-02-28T12:01:09;102037.91;;;13.67;24.30
12360;BME280;6244;51.460;7.090;2023-02-28T12:06:17;102025.50;;;13.27;23.80
12360;BME280;6244;51.460;7.090;2023-02-28T12:11:22;102023.50;;;13.10;25.69
12360;BME280;6244;51.460;7.090;2023-02-28T12:16:41;102017.19;;;13.14;24.15
12360;BME280;6244;51.460;7.090;2023-02-28T12:21:52;102008.38;;;13.37;24.09
12360;BME280;6244;51.460;7.090;2023-02-28T12:26:53;102011.63;;;12.55;26.26
12360;BME280;6244;51.460;7.090;2023-02-28T12:31:55;102002.22;;;11.48;26.91
12360;BME280;6244;51.460;7.090;2023-02-28T12:36:53;101999.44;;;12.27;26.07
12360;BME280;6244;51.460;7.090;2023-02-28T12:41:55;101989.00;;;11.76;27.26
12360;BME280;6244;51.460;7.090;2023-02-28T12:46:58;101972.94;;;11.59;27.48
12360;BME280;6244;51.460;7.090;2023-02-28T12:51:56;101976.38;;;10.21;29.60
12360;BME280;6244;51.460;7.090;2023-02-28T12:57:01;101961.94;;;9.04;32.26
12360;BME280;6244;51.460;7.090;2023-02-28T13:02:13;101976.84;;;8.20;33.84
12360;BME280;6244;51.460;7.090;2023-02-28T13:07:42;101957.53;;;8.27;34.76
12360;BME280;6244;51.460;7.090;2023-02-28T13:12:49;101962.63;;;8.33;33.38
12360;BME280;6244;51.460;7.090;2023-02-28T13:17:49;101947.34;;;8.57;33.84
12360;BME280;6244;51.460;7.090;2023-02-28T13:22:48;101946.91;;;8.36;33.83
12360;BME280;6244;51.460;7.090;2023-02-28T13:27:44;101945.28;;;8.29;34.49
12360;BME280;6244;51.460;7.090;2023-02-28T13:32:42;101937.34;;;8.35;35.12
12360;BME280;6244;51.460;7.090;2023-02-28T13:37:43;101937.03;;;8.49;35.19
12360;BME280;6244;51.460;7.090;2023-02-28T13:42:47;101928.06;;;8.17;35.86
12360;BME280;6244;51.460;7.090;2023-02-28T13:48:00;101924.72;;;8.12;36.24
12360;BME280;6244;51.460;7.090;2023-02-28T13:53:29;101923.34;;;7.94;37.16
12360;BME280;6244;51.460;7.090;2023-02-28T13:58:41;101928.97;;;7.73;37.25
12360;BME280;6244;51.460;7.090;2023-02-28T14:04:06;101933.28;;;7.76;37.25
12360;BME280;6244;51.460;7.090;2023-02-28T14:09:21;101928.25;;;7.65;37.46
12360;BME280;6244;51.460;7.090;2023-02-28T14:14:55;101929.09;;;7.65;38.08
12360;BME280;6244;51.460;7.090;2023-02-28T14:19:57;101935.97;;;7.73;37.21
12360;BME280;6244;51.460;7.090;2023-02-28T14:25:11;101926.66;;;7.56;37.29
12360;BME280;6244;51.460;7.090;2023-02-28T14:36:04;101923.84;;;7.18;37.34
12360;BME280;6244;51.460;7.090;2023-02-28T14:41:04;101917.00;;;7.12;38.60
12360;BME280;6244;51.460;7.090;2023-02-28T14:46:04;101928.91;;;7.28;38.16
12360;BME280;6244;51.460;7.090;2023-02-28T14:51:02;101917.66;;;7.25;38.85
12360;BME280;6244;51.460;7.090;2023-02-28T14:55:58;101913.13;;;7.36;39.39
12360;BME280;6244;51.460;7.090;2023-02-28T15:00:58;101918.94;;;7.50;38.98
12360;BME280;6244;51.460;7.090;2023-02-28T15:05:57;101913.25;;;7.27;39.65
12360;BME280;6244;51.460;7.090;2023-02-28T15:10:55;101910.09;;;7.10;39.31
12360;BME280;6244;51.460;7.090;2023-02-28T15:15:57;101909.16;;;7.14;38.80
12360;BME280;6244;51.460;7.090;2023-02-28T15:20:55;101912.22;;;6.85;39.23
12360;BME280;6244;51.460;7.090;2023-02-28T15:25:53;101890.56;;;6.80;38.75
12360;BME280;6244;51.460;7.090;2023-02-28T15:30:53;101897.84;;;6.59;39.81
12360;BME280;6244;51.460;7.090;2023-02-28T15:35:51;101905.69;;;6.58;40.02
12360;BME280;6244;51.460;7.090;2023-02-28T15:40:59;101894.56;;;6.45;39.97
12360;BME280;6244;51.460;7.090;2023-02-28T15:45:58;101891.00;;;6.51;40.13
12360;BME280;6244;51.460;7.090;2023-02-28T15:51:01;101913.91;;;6.27;41.15
12360;BME280;6244;51.460;7.090;2023-02-28T15:56:01;101908.16;;;6.02;41.91
12360;BME280;6244;51.460;7.090;2023-02-28T16:01:16;101902.97;;;6.01;41.96
12360;BME280;6244;51.460;7.090;2023-02-28T16:06:39;101902.38;;;5.74;43.05
12360;BME280;6244;51.460;7.090;2023-02-28T16:11:40;101902.72;;;5.41;43.48
12360;BME280;6244;51.460;7.090;2023-02-28T16:16:42;101905.47;;;5.25;44.58
12360;BME280;6244;51.460;7.090;2023-02-28T16:21:40;101921.44;;;4.84;45.24
12360;BME280;6244;51.460;7.090;2023-02-28T16:26:39;101921.66;;;4.48;46.24
12360;BME280;6244;51.460;7.090;2023-02-28T16:31:37;101920.81;;;4.41;46.43
12360;BME280;6244;51.460;7.090;2023-02-28T16:36:34;101920.84;;;4.33;46.87
12360;BME280;6244;51.460;7.090;2023-02-28T16:41:33;101932.97;;;4.37;46.40
12360;BME280;6244;51.460;7.090;2023-02-28T16:46:33;101940.88;;;4.11;46.19
12360;BME280;6244;51.460;7.090;2023-02-28T16:51:30;101948.75;;;3.90;47.02
12360;BME280;6244;51.460;7.090;2023-02-28T16:56:26;101944.44;;;3.77;47.66
12360;BME280;6244;51.460;7.090;2023-02-28T17:01:24;101948.78;;;3.73;48.25
12360;BME280;6244;51.460;7.090;2023-02-28T17:06:24;101954.84;;;3.63;47.93
12360;BME280;6244;51.460;7.090;2023-02-28T17:11:23;101959.19;;;3.57;48.58
12360;BME280;6244;51.460;7.090;2023-02-28T17:26:31;101962.69;;;3.36;48.73
12360;BME280;6244;51.460;7.090;2023-02-28T17:31:28;101969.59;;;3.24;49.54
12360;BME280;6244;51.460;7.090;2023-02-28T17:36:27;101966.13;;;3.07;49.61
12360;BME280;6244;51.460;7.090;2023-02-28T17:41:23;101974.75;;;3.08;50.73
12360;BME280;6244;51.460;7.090;2023-02-28T17:46:24;101971.34;;;3.22;50.76
12360;BME280;6244;51.460;7.090;2023-02-28T17:51:22;101967.88;;;3.13;50.49
12360;BME280;6244;51.460;7.090;2023-02-28T17:56:21;101975.63;;;3.17;50.50
12360;BME280;6244;51.460;7.090;2023-02-28T18:01:18;101973.91;;;3.03;50.61
12360;BME280;6244;51.460;7.090;2023-02-28T18:06:19;101973.91;;;3.04;51.44
12360;BME280;6244;51.460;7.090;2023-02-28T18:11:17;101985.09;;;2.95;51.37
12360;BME280;6244;51.460;7.090;2023-02-28T18:16:14;101985.09;;;2.83;51.78
12360;BME280;6244;51.460;7.090;2023-02-28T18:21:12;101985.09;;;2.77;51.56
12360;BME280;6244;51.460;7.090;2023-02-28T18:26:11;101986.78;;;2.71;52.04
12360;BME280;6244;51.460;7.090;2023-02-28T18:31:09;101986.81;;;2.74;52.40
12360;BME280;6244;51.460;7.090;2023-02-28T18:36:07;101992.84;;;2.65;52.64
12360;BME280;6244;51.460;7.090;2023-02-28T18:41:05;101983.28;;;2.55;53.24
12360;BME280;6244;51.460;7.090;2023-02-28T18:46:05;101983.28;;;2.49;53.40
12360;BME280;6244;51.460;7.090;2023-02-28T18:51:06;101981.56;;;2.51;53.54
12360;BME280;6244;51.460;7.090;2023-02-28T18:56:04;101983.28;;;2.50;53.46
12360;BME280;6244;51.460;7.090;2023-02-28T19:01:02;101991.06;;;2.49;53.62
12360;BME280;6244;51.460;7.090;2023-02-28T19:06:00;102000.53;;;2.42;53.56
12360;BME280;6244;51.460;7.090;2023-02-28T19:10:57;102001.38;;;2.40;53.02
12360;BME280;6244;51.460;7.090;2023-02-28T19:16:00;101991.84;;;2.35;53.82
12360;BME280;6244;51.460;7.090;2023-02-28T19:20:56;101995.28;;;2.24;54.13
12360;BME280;6244;51.460;7.090;2023-02-28T19:25:54;101996.91;;;2.10;54.59
12360;BME280;6244;51.460;7.090;2023-02-28T19:30:51;102005.53;;;2.07;55.24
12360;BME280;6244;51.460;7.090;2023-02-28T19:35:48;102004.59;;;1.96;55.57
12360;BME280;6244;51.460;7.090;2023-02-28T19:40:45;102009.69;;;1.85;55.54
12360;BME280;6244;51.460;7.090;2023-02-28T19:45:43;102009.66;;;1.76;56.24
12360;BME280;6244;51.460;7.090;2023-02-28T19:50:39;102011.41;;;1.82;56.15
12360;BME280;6244;51.460;7.090;2023-02-28T19:55:37;102011.34;;;1.72;56.05
12360;BME280;6244;51.460;7.090;2023-02-28T20:00:33;102009.59;;;1.68;56.19
12360;BME280;6244;51.460;7.090;2023-02-28T20:05:31;102013.03;;;1.66;56.28
12360;BME280;6244;51.460;7.090;2023-02-28T20:10:28;102013.91;;;1.66;56.53
12360;BME280;6244;51.460;7.090;2023-02-28T20:15:25;102009.56;;;1.62;56.86
12360;BME280;6244;51.460;7.090;2023-02-28T20:20:21;102019.88;;;1.59;57.19
12360;BME280;6244;51.460;7.090;2023-02-28T20:25:19;102019.84;;;1.55;57.48
12360;BME280;6244;51.460;7.090;2023-02-28T20:30:16;102026.75;;;1.54;57.29
12360;BME280;6244;51.460;7.090;2023-02-28T20:35:16;102023.28;;;1.54;57.29
12360;BME280;6244;51.460;7.090;2023-02-28T20:40:13;102015.56;;;1.60;57.21
12360;BME280;6244;51.460;7.090;2023-02-28T20:45:11;102012.94;;;1.52;57.26
12360;BME280;6244;51.460;7.090;2023-02-28T20:50:08;102016.28;;;1.42;58.14
12360;BME280;6244;51.460;7.090;2023-02-28T20:55:06;102011.13;;;1.40;57.76
12360;BME280;6244;51.460;7.090;2023-02-28T21:00:04;102011.91;;;1.35;57.66
12360;BME280;6244;51.460;7.090;2023-02-28T21:05:05;102009.31;;;1.32;58.02
12360;BME280;6244;51.460;7.090;2023-02-28T21:10:02;102019.59;;;1.24;58.38
12360;BME280;6244;51.460;7.090;2023-02-28T21:14:59;102019.56;;;1.23;58.78
12360;BME280;6244;51.460;7.090;2023-02-28T21:19:55;102018.69;;;1.22;58.34
12360;BME280;6244;51.460;7.090;2023-02-28T21:24:53;102026.31;;;1.08;59.12
12360;BME280;6244;51.460;7.090;2023-02-28T21:29:49;102028.03;;;1.06;59.64
12360;BME280;6244;51.460;7.090;2023-02-28T21:34:46;102033.16;;;1.02;58.95
12360;BME280;6244;51.460;7.090;2023-02-28T21:39:42;102030.50;;;0.94;59.54
12360;BME280;6244;51.460;7.090;2023-02-28T21:44:42;102023.56;;;0.92;59.90
12360;BME280;6244;51.460;7.090;2023-02-28T21:49:39;102026.09;;;0.85;59.52
12360;BME280;6244;51.460;7.090;2023-02-28T21:54:35;102021.78;;;0.86;59.97
12360;BME280;6244;51.460;7.090;2023-02-28T21:59:32;102033.78;;;0.79;59.64
12360;BME280;6244;51.460;7.090;2023-02-28T22:04:30;102030.34;;;0.82;60.28
12360;BME280;6244;51.460;7.090;2023-02-28T22:09:27;102027.72;;;0.76;59.94
12360;BME280;6244;51.460;7.090;2023-02-28T22:14:23;102016.59;;;0.84;60.13
12360;BME280;6244;51.460;7.090;2023-02-28T22:19:21;102016.59;;;0.83;59.95
12360;BME280;6244;51.460;7.090;2023-02-28T22:24:19;102026.91;;;0.83;60.10
12360;BME280;6244;51.460;7.090;2023-02-28T22:29:18;102027.69;;;0.74;59.96
12360;BME280;6244;51.460;7.090;2023-02-28T22:34:15;102035.34;;;0.67;60.14
12360;BME280;6244;51.460;7.090;2023-02-28T22:39:11;102034.38;;;0.58;60.76
12360;BME280;6244;51.460;7.090;2023-02-28T22:44:10;102031.84;;;0.62;61.04
12360;BME280;6244;51.460;7.090;2023-02-28T22:49:07;102029.03;;;0.43;60.26
12360;BME280;6244;51.460;7.090;2023-02-28T22:54:04;102025.59;;;0.41;60.81
12360;BME280;6244;51.460;7.090;2023-02-28T22:59:00;102015.44;;;0.56;61.07
12360;BME280;6244;51.460;7.090;2023-02-28T23:03:59;102013.69;;;0.54;61.01
12360;BME280;6244;51.460;7.090;2023-02-28T23:08:58;102023.06;;;0.47;61.17
12360;BME280;6244;51.460;7.090;2023-02-28T23:13:56;102029.78;;;0.33;60.64
12360;BME280;6244;51.460;7.090;2023-02-28T23:18:56;102028.03;;;0.32;60.86
12360;BME280;6244;51.460;7.090;2023-02-28T23:23:57;102039.00;;;0.14;61.39
12360;BME280;6244;51.460;7.090;2023-02-28T23:28:53;102040.81;;;0.23;62.03
12360;BME280;6244;51.460;7.090;2023-02-28T23:33:50;102039.94;;;0.21;61.75
12360;BME280;6244;51.460;7.090;2023-02-28T23:38:50;102037.38;;;0.24;61.70
12360;BME280;6244;51.460;7.090;2023-02-28T23:43:50;102043.47;;;0.27;61.16
12360;BME280;6244;51.460;7.090;2023-02-28T23:48:46;102045.13;;;0.24;61.35
12360;BME280;6244;51.460;7.090;2023-02-28T23:53:45;102048.47;;;0.15;62.16
12360;BME280;6244;51.460;7.090;2023-02-28T23:58:43;102059.53;;;0.07;61.98
